GCGM

La Gomera Airport

Alajero, La Gomera Island, Spain
METAR GCGM 201300Z 22008KT 190V260 9999 FEW030 20/13 Q1027 RMK R09/VRB05KT ARP/21007KT 150V270
Observed Flight Rules
Jan-20 @ 13:00 UTC (12 minutes ago) Visual Flight Rules
Wind Visibility Clouds
220° at 8 knots 10,000+ meters
  • Few at 3,000' AGL
Temperatures Readings
Current 20°C / 68°F
Dewpoint 13°C / 55°F
Humidity 64%
Altimeter 30.32" Hg
Pressure 1027 hPa
Elevation 219
METAR GCGM 201300Z 22008KT 190V260 9999 FEW030 20/13 Q1027 RMK R09/VRB05KT ARP/21007KT 150V270
Observed Flight Rules
Jan-20 @ 13:00 UTC
(12 minutes ago)
VFR
Wind Visibility
220° at 8 knots 10,000+ meters
Clouds
  • Few at 3,000' AGL
Temperature Dewpoint
20°C / 68°F 13°C / 55°F
Humidity Altimeter Pressure
64% 30.32" Hg 1027 hPa